sim
Sign-in with your pilot id or email,
or register
Callsign
Passwort

Schedule Details

Flight Number: DLH1939 (2)
Departure: Trieste Friuli Venezia Giulia Airport (LIPQ) at 07:45
Arrival: Munich Airport (EDDM) at 08:45
Route: Lufthansa Passenger Schedule. Enter filed route here before submitting Pirep.

Weather Information
Getting current METAR information for LIPQ 281120Z AUTO 14004KT 110V170 9999 -RA FEW009/// OVC063/// 14/12 Q1007
Getting current METAR information for EDDM 281120Z 27005KT 9999 FEW007 BKN043 09/07 Q1011 NOSIG

Schedule Frequency

Route Map